createdAt,value
2018-04-14T00:00:15.751Z,62.49
2018-04-14T00:01:15.509Z,62.78
2018-04-14T00:02:15.786Z,62.97
2018-04-14T00:03:15.549Z,62.68
2018-04-14T00:04:15.822Z,62.4
2018-04-14T00:05:15.893Z,62.87
2018-04-14T00:06:15.863Z,63.73
2018-04-14T00:07:15.885Z,63.64
2018-04-14T00:08:15.658Z,63.45
2018-04-14T00:09:15.928Z,63.93
2018-04-14T00:10:15.951Z,64.56
2018-04-14T00:11:16.060Z,64.28
2018-04-14T00:12:15.987Z,64.78
2018-04-14T00:13:16.010Z,64.31
2018-04-14T00:14:16.024Z,63.83
2018-04-14T00:15:15.791Z,63.83
2018-04-14T00:16:15.811Z,64.12
2018-04-14T00:17:15.836Z,63.93
2018-04-14T00:18:16.102Z,63.64
2018-04-14T00:19:16.123Z,63.54
2018-04-14T00:20:16.194Z,63.89
2018-04-14T00:21:16.167Z,63.7
2018-04-14T00:22:16.185Z,63.73
2018-04-14T00:23:15.952Z,63.54
2018-04-14T00:24:16.226Z,63.73
2018-04-14T00:25:16.276Z,63.54
2018-04-14T00:26:16.265Z,63.8
2018-04-14T00:27:16.036Z,64.94
2018-04-14T00:28:16.051Z,65.71
2018-04-14T00:29:16.326Z,65.52
2018-04-14T00:30:16.352Z,65.71
2018-04-14T00:31:16.372Z,66.47
2018-04-14T00:32:16.388Z,66
2018-04-14T00:33:16.405Z,66.53
2018-04-14T00:34:16.427Z,66.85
2018-04-14T00:35:16.498Z,67.05
2018-04-14T00:36:16.460Z,67.4
2018-04-14T00:37:16.484Z,67.3
2018-04-14T00:38:16.505Z,67.77
2018-04-14T00:39:16.526Z,67.4
2018-04-14T00:40:16.542Z,66.92
2018-04-14T00:41:16.572Z,67.77
2018-04-14T00:42:16.590Z,67.68
2018-04-14T00:43:16.603Z,68.44
2018-04-14T00:44:16.626Z,68.63
2018-04-14T00:45:16.389Z,68.82
2018-04-14T00:46:16.404Z,69.02
2018-04-14T00:47:16.425Z,68.73
2018-04-14T00:48:16.697Z,69.02
2018-04-14T00:49:16.719Z,69.49
2018-04-14T00:50:16.784Z,68.73
2018-04-14T00:51:16.756Z,68.92
2018-04-14T00:52:16.778Z,68.92
2018-04-14T00:53:16.795Z,68.92
2018-04-14T00:54:16.816Z,69.21
2018-04-14T00:55:16.837Z,69.02
2018-04-14T00:56:16.860Z,68.92
2018-04-14T00:57:16.876Z,69.31
2018-04-14T00:58:16.906Z,69.59
2018-04-14T00:59:16.665Z,69.65
2018-04-14T01:00:16.939Z,69.46
2018-04-14T01:01:16.988Z,69.84
2018-04-14T01:02:16.978Z,70.42
2018-04-14T01:03:16.997Z,70.03
2018-04-14T01:04:17.020Z,70.32
2018-04-14T01:05:16.837Z,69.93
2018-04-14T01:06:17.056Z,69.93
2018-04-14T01:07:17.077Z,70.03
2018-04-14T01:08:16.841Z,70.32
2018-04-14T01:09:17.115Z,71.08
2018-04-14T01:10:17.140Z,70.98
2018-04-14T01:11:17.157Z,71.94
2018-04-14T01:12:16.921Z,71.08
2018-04-14T01:13:17.194Z,70.98
2018-04-14T01:14:16.962Z,70.98
2018-04-14T01:15:17.233Z,71.84
2018-04-14T01:16:17.257Z,71.66
2018-04-14T01:17:17.274Z,71.08
2018-04-14T01:18:17.294Z,71.84
2018-04-14T01:19:17.315Z,71.84
2018-04-14T01:20:17.388Z,71.75
2018-04-14T01:21:17.346Z,71.84
2018-04-14T01:22:17.370Z,72.03
2018-04-14T01:23:17.390Z,71.66
2018-04-14T01:24:17.408Z,71.66
2018-04-14T01:25:17.458Z,71.62
2018-04-14T01:26:17.518Z,72.32
2018-04-14T01:27:17.470Z,72.23
2018-04-14T01:28:17.486Z,72.28
2018-04-14T01:29:17.501Z,72.09
2018-04-14T01:30:17.265Z,72.09
2018-04-14T01:31:17.304Z,72.76
2018-04-14T01:32:17.558Z,72.28
2018-04-14T01:33:17.326Z,72.76
2018-04-14T01:34:17.597Z,72.76
2018-04-14T01:35:17.817Z,72.19
2018-04-14T01:36:17.639Z,72.67
2018-04-14T01:37:17.656Z,72.48
2018-04-14T01:38:17.670Z,72.57
2018-04-14T01:39:17.693Z,72.09
2018-04-14T01:40:17.718Z,72.57
2018-04-14T01:41:17.737Z,72.86
2018-04-14T01:42:17.754Z,72.76
2018-04-14T01:43:17.522Z,73.14
2018-04-14T01:44:17.799Z,72.67
2018-04-14T01:45:17.564Z,72.86
2018-04-14T01:46:17.834Z,73.33
2018-04-14T01:47:17.617Z,72.76
2018-04-14T01:48:17.869Z,72.67
2018-04-14T01:49:17.893Z,72.57
2018-04-14T01:50:17.964Z,72.86
2018-04-14T01:51:17.931Z,72.76
2018-04-14T01:52:17.944Z,72.57
2018-04-14T01:53:17.966Z,73.24
2018-04-14T01:54:17.986Z,72.76
2018-04-14T01:55:18.012Z,72.86
2018-04-14T01:56:18.033Z,72.96
2018-04-14T01:57:18.043Z,73.05
2018-04-14T01:58:18.062Z,72.57
2018-04-14T01:59:18.080Z,72
2018-04-14T02:00:18.103Z,72.96
2018-04-14T02:01:18.120Z,72.67
2018-04-14T02:02:17.902Z,73.05
2018-04-14T02:03:18.154Z,73.14
2018-04-14T02:04:17.923Z,72.86
2018-04-14T02:05:18.251Z,72.76
2018-04-14T02:06:18.214Z,73.14
2018-04-14T02:07:18.238Z,73.05
2018-04-14T02:08:18.252Z,72.67
2018-04-14T02:09:18.273Z,73.14
2018-04-14T02:10:18.037Z,72.67
2018-04-14T02:11:18.311Z,72.67
2018-04-14T02:12:18.332Z,72.28
2018-04-14T02:13:18.093Z,72.09
2018-04-14T02:14:18.366Z,71.91
2018-04-14T02:15:18.136Z,72.19
2018-04-14T02:16:18.405Z,72.19
2018-04-14T02:17:18.430Z,72.28
2018-04-14T02:18:18.471Z,72.28
2018-04-14T02:19:18.469Z,72.09
2018-04-14T02:20:18.530Z,72.38
2018-04-14T02:21:18.247Z,72.38
2018-04-14T02:22:18.519Z,72.86
2018-04-14T02:23:18.539Z,72.28
2018-04-14T02:24:18.564Z,72.09
2018-04-14T02:25:18.577Z,72.09
2018-04-14T02:26:18.602Z,72.48
2018-04-14T02:27:18.621Z,72.19
2018-04-14T02:28:18.641Z,72.28
2018-04-14T02:29:18.658Z,72.19
2018-04-14T02:30:18.675Z,72.19
2018-04-14T02:31:18.693Z,72
2018-04-14T02:32:18.712Z,71.81
2018-04-14T02:33:18.479Z,72
2018-04-14T02:34:18.772Z,70.86
2018-04-14T02:35:18.569Z,71.14
2018-04-14T02:36:18.789Z,71.62
2018-04-14T02:37:18.818Z,71.33
2018-04-14T02:38:18.825Z,70.95
2018-04-14T02:39:18.859Z,70.98
2018-04-14T02:40:18.863Z,71.04
2018-04-14T02:41:18.889Z,70.98
2018-04-14T02:42:18.905Z,70.89
2018-04-14T02:43:18.929Z,70.51
2018-04-14T02:44:18.942Z,70.32
2018-04-14T02:45:18.705Z,70.03
2018-04-14T02:46:18.980Z,70.42
2018-04-14T02:47:19.005Z,70.22
2018-04-14T02:48:19.019Z,70.32
2018-04-14T02:49:19.055Z,70.67
2018-04-14T02:50:19.105Z,71.04
2018-04-14T02:51:19.072Z,70.95
2018-04-14T02:52:19.177Z,70.86
2018-04-14T02:53:19.108Z,71.04
2018-04-14T02:54:18.877Z,71.81
2018-04-14T02:55:19.150Z,72.19
2018-04-14T02:56:19.167Z,72.28
2018-04-14T02:57:19.187Z,72.57
2018-04-14T02:58:19.211Z,72.48
2018-04-14T02:59:19.231Z,71.91
2018-04-14T03:00:19.001Z,71.91
2018-04-14T03:01:19.010Z,72.28
2018-04-14T03:02:19.284Z,72.48
2018-04-14T03:03:19.308Z,72.28
2018-04-14T03:04:19.369Z,72.63
2018-04-14T03:05:19.388Z,72.76
2018-04-14T03:06:19.360Z,72.72
2018-04-14T03:07:19.378Z,72.19
2018-04-14T03:08:19.398Z,72.09
2018-04-14T03:09:19.414Z,71.91
2018-04-14T03:10:19.541Z,72
2018-04-14T03:11:19.458Z,71.91
2018-04-14T03:12:19.478Z,72.09
2018-04-14T03:13:19.518Z,72
2018-04-14T03:14:19.509Z,72.38
2018-04-14T03:15:19.529Z,72
2018-04-14T03:16:19.550Z,72.09
2018-04-14T03:17:19.613Z,72.38
2018-04-14T03:18:19.327Z,72.19
2018-04-14T03:19:19.346Z,72.25
2018-04-14T03:20:19.668Z,72.72
2018-04-14T03:21:19.638Z,72.34
2018-04-14T03:22:19.656Z,72.16
2018-04-14T03:23:19.677Z,72.82
2018-04-14T03:24:19.695Z,72.92
2018-04-14T03:25:19.712Z,72.44
2018-04-14T03:26:19.735Z,72.53
2018-04-14T03:27:19.748Z,72.82
2018-04-14T03:28:19.773Z,72.16
2018-04-14T03:29:19.798Z,72.16
2018-04-14T03:30:19.811Z,72.72
2018-04-14T03:31:19.976Z,72.72
2018-04-14T03:32:19.600Z,72.63
2018-04-14T03:33:19.867Z,72.25
2018-04-14T03:34:19.906Z,73.01
2018-04-14T03:35:19.955Z,72.44
2018-04-14T03:36:19.921Z,72.16
2018-04-14T03:37:19.946Z,72.25
2018-04-14T03:38:19.962Z,72.63
2018-04-14T03:39:19.724Z,72.34
2018-04-14T03:40:19.998Z,72.06
2018-04-14T03:41:19.760Z,72.63
2018-04-14T03:42:20.033Z,72.44
2018-04-14T03:43:20.055Z,72.16
2018-04-14T03:44:19.817Z,71.96
2018-04-14T03:45:20.091Z,71.68
2018-04-14T03:46:20.110Z,72.06
2018-04-14T03:47:19.886Z,71.96
2018-04-14T03:48:20.146Z,72.16
2018-04-14T03:49:20.165Z,71.87
2018-04-14T03:50:20.236Z,72.44
2018-04-14T03:51:20.200Z,72.06
2018-04-14T03:52:20.223Z,72.25
2018-04-14T03:53:20.237Z,72.16
2018-04-14T03:54:20.256Z,72.06
2018-04-14T03:55:20.276Z,72.16
2018-04-14T03:56:20.292Z,71.96
2018-04-14T03:57:20.314Z,72.16
2018-04-14T03:58:20.334Z,72.25
2018-04-14T03:59:20.352Z,72.25
2018-04-14T04:00:20.366Z,72.34
2018-04-14T04:01:20.387Z,72.44
2018-04-14T04:02:20.402Z,72.34
2018-04-14T04:03:20.429Z,72.06
2018-04-14T04:04:20.447Z,72.16
2018-04-14T04:05:20.517Z,72.34
2018-04-14T04:06:20.485Z,72.34
2018-04-14T04:07:20.501Z,72.82
2018-04-14T04:08:20.521Z,72.16
2018-04-14T04:09:20.285Z,72.06
2018-04-14T04:10:20.559Z,72.53
2018-04-14T04:11:20.570Z,71.96
2018-04-14T04:12:20.583Z,71.48
2018-04-14T04:13:20.612Z,71.68
2018-04-14T04:14:20.626Z,72.06
2018-04-14T04:15:20.639Z,71.87
2018-04-14T04:16:20.661Z,72.34
2018-04-14T04:17:20.449Z,72.44
2018-04-14T04:18:20.448Z,72.25
2018-04-14T04:19:20.716Z,72.25
2018-04-14T04:20:20.786Z,72.44
2018-04-14T04:21:20.760Z,72.16
2018-04-14T04:22:20.521Z,72.72
2018-04-14T04:23:20.858Z,73.36
2018-04-14T04:24:20.820Z,72.88
2018-04-14T04:25:20.840Z,73.17
2018-04-14T04:26:20.860Z,72.78
2018-04-14T04:27:20.872Z,73.26
2018-04-14T04:28:20.899Z,72.78
2018-04-14T04:29:20.910Z,72.88
2018-04-14T04:30:20.928Z,73.26
2018-04-14T04:31:20.951Z,72.97
2018-04-14T04:32:20.965Z,73.17
2018-04-14T04:33:20.988Z,72.88
2018-04-14T04:34:20.999Z,73.07
2018-04-14T04:35:21.077Z,72.69
2018-04-14T04:36:21.039Z,72.88
2018-04-14T04:37:21.062Z,73.45
2018-04-14T04:38:20.823Z,73.55
2018-04-14T04:39:21.096Z,72.78
2018-04-14T04:40:21.112Z,72.6
2018-04-14T04:41:21.131Z,72.97
2018-04-14T04:42:20.896Z,72.78
2018-04-14T04:43:21.170Z,72.78
2018-04-14T04:44:21.184Z,72.78
2018-04-14T04:45:21.209Z,72.6
2018-04-14T04:46:21.225Z,72.21
2018-04-14T04:47:21.245Z,72.53
2018-04-14T04:48:21.005Z,72.44
2018-04-14T04:49:21.279Z,72.16
2018-04-14T04:50:21.348Z,71.58
2018-04-14T04:51:21.061Z,71.87
2018-04-14T04:52:21.334Z,71.87
2018-04-14T04:53:21.350Z,71.48
2018-04-14T04:54:21.374Z,71.58
2018-04-14T04:55:21.393Z,71.58
2018-04-14T04:56:21.408Z,71.87
2018-04-14T04:57:21.171Z,71.58
2018-04-14T04:58:21.444Z,71.01
2018-04-14T04:59:21.462Z,70.92
2018-04-14T05:00:21.484Z,70.63
2018-04-14T05:01:21.254Z,70.44
2018-04-14T05:02:21.265Z,71.11
2018-04-14T05:03:21.536Z,71.01
2018-04-14T05:04:21.557Z,70.53
2018-04-14T05:05:21.623Z,70.72
2018-04-14T05:06:21.592Z,70.63
2018-04-14T05:07:21.356Z,70.47
2018-04-14T05:08:21.629Z,69.62
2018-04-14T05:09:21.652Z,69.9
2018-04-14T05:10:21.415Z,68.95
2018-04-14T05:11:21.687Z,69.33
2018-04-14T05:12:21.706Z,69.43
2018-04-14T05:13:21.493Z,69.62
2018-04-14T05:14:21.488Z,68.76
2018-04-14T05:15:21.762Z,68.85
2018-04-14T05:16:21.799Z,68.57
2018-04-14T05:17:21.802Z,68.85
2018-04-14T05:18:21.825Z,69.14
2018-04-14T05:19:21.837Z,69.43
2018-04-14T05:20:21.905Z,68.76
2018-04-14T05:21:21.878Z,68.85
2018-04-14T05:22:21.895Z,69.23
2018-04-14T05:23:21.659Z,68.85
2018-04-14T05:24:21.928Z,69.14
2018-04-14T05:25:21.744Z,68.95
2018-04-14T05:26:21.971Z,68.38
2018-04-14T05:27:21.989Z,68.66
2018-04-14T05:28:22.009Z,68.57
2018-04-14T05:29:22.025Z,67.99
2018-04-14T05:30:22.044Z,68.28
2018-04-14T05:31:22.081Z,67.71
2018-04-14T05:32:22.081Z,67.99
2018-04-14T05:33:22.103Z,67.52
2018-04-14T05:34:22.121Z,67.52
2018-04-14T05:35:22.189Z,67.23
2018-04-14T05:36:22.158Z,67.14
2018-04-14T05:37:22.190Z,66.85
2018-04-14T05:38:22.200Z,66.41
2018-04-14T05:39:22.215Z,65.8
2018-04-14T05:40:22.231Z,66.18
2018-04-14T05:41:22.258Z,65.89
2018-04-14T05:42:22.269Z,66.28
2018-04-14T05:43:22.289Z,66.38
2018-04-14T05:44:22.317Z,66.75
2018-04-14T05:45:22.074Z,66.38
2018-04-14T05:46:22.359Z,66.38
2018-04-14T05:47:22.110Z,65.8
2018-04-14T05:48:22.384Z,65.42
2018-04-14T05:49:22.405Z,65.52
2018-04-14T05:50:22.471Z,64.94
2018-04-14T05:51:22.443Z,65.61
2018-04-14T05:52:22.473Z,65.52
2018-04-14T05:53:22.478Z,65.13
2018-04-14T05:54:22.498Z,65.23
2018-04-14T05:55:22.519Z,64.94
2018-04-14T05:56:22.543Z,64.85
2018-04-14T05:57:22.556Z,65.04
2018-04-14T05:58:22.580Z,64.85
2018-04-14T05:59:22.594Z,63.92
2018-04-14T06:00:22.613Z,64.31
2018-04-14T06:01:22.641Z,64.78
2018-04-14T06:02:22.655Z,64.12
2018-04-14T06:03:22.672Z,63.54
2018-04-14T06:04:22.441Z,62.59
2018-04-14T06:05:22.760Z,62.88
2018-04-14T06:06:22.728Z,62.78
2018-04-14T06:07:22.750Z,63.07
2018-04-14T06:08:22.767Z,62.78
2018-04-14T06:09:22.792Z,62.4
2018-04-14T06:10:22.553Z,62.3
2018-04-14T06:11:22.834Z,62.59
2018-04-14T06:12:22.844Z,61.76
2018-04-14T06:13:22.865Z,61.38
2018-04-14T06:14:22.629Z,61.38
2018-04-14T06:15:22.905Z,61.38
2018-04-14T06:16:22.928Z,61.47
2018-04-14T06:17:22.946Z,60.61
2018-04-14T06:18:22.964Z,60.9
2018-04-14T06:19:22.986Z,60.81
2018-04-14T06:20:23.053Z,60.52
2018-04-14T06:21:22.771Z,60.52
2018-04-14T06:22:23.237Z,61.29
2018-04-14T06:23:23.062Z,60.33
2018-04-14T06:24:23.083Z,60.71
2018-04-14T06:25:22.847Z,59.31
2018-04-14T06:26:23.121Z,58.83
2018-04-14T06:27:23.138Z,58.16
2018-04-14T06:28:22.907Z,58.64
2018-04-14T06:29:23.182Z,58.36
2018-04-14T06:30:23.201Z,58.16
2018-04-14T06:31:23.221Z,57.68
2018-04-14T06:32:23.248Z,57.81
2018-04-14T06:33:23.008Z,57.04
2018-04-14T06:34:23.286Z,57.33
2018-04-14T06:35:23.410Z,56.95
2018-04-14T06:36:23.071Z,56.09
2018-04-14T06:37:23.343Z,56.09
2018-04-14T06:38:23.371Z,55.61
2018-04-14T06:39:23.383Z,55.61
2018-04-14T06:40:23.402Z,55.32
2018-04-14T06:41:23.422Z,55.8
2018-04-14T06:42:23.188Z,55.42
2018-04-14T06:43:23.208Z,55.52
2018-04-14T06:44:23.483Z,54.66
2018-04-14T06:45:23.347Z,54.94
2018-04-14T06:46:23.611Z,54.59
2018-04-14T06:47:23.542Z,54.21
2018-04-14T06:48:23.567Z,54.59
2018-04-14T06:49:23.328Z,54.59
2018-04-14T06:50:23.654Z,54.68
2018-04-14T06:51:23.367Z,54.21
2018-04-14T06:52:23.386Z,53.92
2018-04-14T06:53:23.666Z,53.34
2018-04-14T06:54:23.430Z,53.25
2018-04-14T06:55:23.707Z,52.96
2018-04-14T06:56:23.725Z,53.44
2018-04-14T06:57:23.746Z,52.87
2018-04-14T06:58:23.516Z,53.37
2018-04-14T06:59:23.783Z,52.7
2018-04-14T07:00:23.805Z,52.96
2018-04-14T07:01:23.829Z,53.08
2018-04-14T07:02:23.848Z,52.61
2018-04-14T07:03:23.868Z,52.7
2018-04-14T07:04:23.940Z,52.51
2018-04-14T07:05:23.959Z,52.7
2018-04-14T07:06:23.927Z,52.8
2018-04-14T07:07:23.949Z,52.51
2018-04-14T07:08:23.977Z,52.32
2018-04-14T07:09:23.741Z,52.03
2018-04-14T07:10:23.761Z,51.68
2018-04-14T07:11:24.034Z,51.2
2018-04-14T07:12:24.053Z,51.29
2018-04-14T07:13:24.072Z,50.91
2018-04-14T07:14:24.100Z,50.34
2018-04-14T07:15:24.117Z,50.52
2018-04-14T07:16:23.878Z,50.43
2018-04-14T07:17:23.904Z,50.52
2018-04-14T07:18:23.924Z,49.98
2018-04-14T07:19:24.201Z,49.4
2018-04-14T07:20:24.018Z,49.02
2018-04-14T07:21:23.988Z,49.11
2018-04-14T07:22:24.272Z,49.11
2018-04-14T07:23:24.286Z,49.79
2018-04-14T07:24:24.053Z,48.35
2018-04-14T07:25:24.328Z,48.47
2018-04-14T07:26:24.344Z,48.28
2018-04-14T07:27:24.375Z,47.8
2018-04-14T07:28:24.388Z,47.89
2018-04-14T07:29:24.258Z,47.32
2018-04-14T07:30:24.178Z,46.84
2018-04-14T07:31:24.457Z,46.75
2018-04-14T07:32:24.576Z,46.75
2018-04-14T07:33:24.501Z,46.84
2018-04-14T07:34:24.518Z,46.26
2018-04-14T07:35:24.289Z,46.36
2018-04-14T07:36:24.311Z,46.55
2018-04-14T07:37:24.338Z,46.26
2018-04-14T07:38:24.603Z,46.26
2018-04-14T07:39:24.676Z,45.89
2018-04-14T07:40:24.392Z,45.43
2018-04-14T07:41:24.677Z,45.62
2018-04-14T07:42:24.698Z,45.52
2018-04-14T07:43:24.719Z,45.14
2018-04-14T07:44:24.742Z,45.14
2018-04-14T07:45:24.763Z,44.37
2018-04-14T07:46:24.785Z,44.09
2018-04-14T07:47:24.810Z,43.53
2018-04-14T07:48:24.827Z,43.82
2018-04-14T07:49:24.853Z,43.82
2018-04-14T07:50:24.877Z,43.63
2018-04-14T07:51:24.898Z,43.24
2018-04-14T07:52:24.660Z,43.34
2018-04-14T07:53:24.936Z,43.24
2018-04-14T07:54:24.756Z,43.15
2018-04-14T07:55:24.747Z,42.77
2018-04-14T07:56:24.752Z,42.47
2018-04-14T07:57:25.032Z,42.57
2018-04-14T07:58:25.052Z,42.1
2018-04-14T07:59:25.076Z,41.33
2018-04-14T08:00:25.095Z,41.23
2018-04-14T08:01:25.126Z,41.9
2018-04-14T08:02:24.885Z,41.93
2018-04-14T08:03:24.911Z,41.44
2018-04-14T08:04:25.207Z,41.06
2018-04-14T08:05:25.207Z,40.96
2018-04-14T08:06:25.227Z,40.77
2018-04-14T08:07:25.254Z,40.12
2018-04-14T08:08:25.276Z,39.54
2018-04-14T08:09:25.450Z,39.35
2018-04-14T08:10:25.322Z,39.54
2018-04-14T08:11:25.095Z,39.06
2018-04-14T08:12:25.368Z,38.7
2018-04-14T08:13:25.394Z,38.68
2018-04-14T08:14:25.407Z,38.32
2018-04-14T08:15:25.429Z,38.12
2018-04-14T08:16:25.200Z,38.32
2018-04-14T08:17:25.223Z,38.22
2018-04-14T08:18:25.615Z,38.41
2018-04-14T08:19:25.523Z,38.32
2018-04-14T08:20:25.544Z,38.32
2018-04-14T08:21:25.571Z,37.93
2018-04-14T08:22:25.593Z,37.37
2018-04-14T08:23:25.611Z,38.14
2018-04-14T08:24:25.690Z,36.9
2018-04-14T08:25:25.666Z,36.7
2018-04-14T08:26:25.695Z,36.41
2018-04-14T08:27:25.716Z,36.13
2018-04-14T08:28:25.742Z,35.74
2018-04-14T08:29:25.514Z,35.83
2018-04-14T08:30:25.790Z,36.03
2018-04-14T08:31:25.811Z,35.93
2018-04-14T08:32:25.582Z,36.05
2018-04-14T08:33:25.861Z,35.55
2018-04-14T08:34:25.728Z,35.47
2018-04-14T08:35:25.654Z,35.57
2018-04-14T08:36:25.676Z,35.08
2018-04-14T08:37:26.115Z,35.18
2018-04-14T08:38:25.979Z,34.8
2018-04-14T08:39:25.796Z,34.12
2018-04-14T08:40:26.024Z,34.51
2018-04-14T08:41:26.137Z,34.89
2018-04-14T08:42:26.073Z,34.72
2018-04-14T08:43:26.097Z,34.51
2018-04-14T08:44:26.119Z,34.41
2018-04-14T08:45:25.890Z,34.22
2018-04-14T08:46:26.169Z,34.51
2018-04-14T08:47:25.939Z,34.31
2018-04-14T08:48:25.959Z,33.93
2018-04-14T08:49:26.234Z,33.84
2018-04-14T08:50:26.264Z,33.64
2018-04-14T08:51:26.283Z,33.45
2018-04-14T08:52:26.316Z,33.26
2018-04-14T08:53:26.079Z,33.54
2018-04-14T08:54:26.405Z,33.45
2018-04-14T08:55:26.131Z,33.36
2018-04-14T08:56:26.524Z,33.28
2018-04-14T08:57:26.429Z,32.98
2018-04-14T08:58:26.449Z,32.51
2018-04-14T08:59:26.513Z,32.52
2018-04-14T09:00:26.505Z,32.33
2018-04-14T09:01:26.530Z,32.14
2018-04-14T09:02:26.562Z,32.14
2018-04-14T09:03:26.583Z,31.75
2018-04-14T09:04:26.350Z,32.71
2018-04-14T09:05:26.628Z,32.71
2018-04-14T09:06:26.656Z,32.23
2018-04-14T09:07:26.678Z,32.54
2018-04-14T09:08:26.703Z,32.14
2018-04-14T09:09:26.774Z,31.65
2018-04-14T09:10:26.750Z,31.67
2018-04-14T09:11:26.518Z,31.48
2018-04-14T09:12:26.801Z,31.48
2018-04-14T09:13:26.571Z,31.09
2018-04-14T09:14:26.595Z,31.21
2018-04-14T09:15:26.875Z,31.01
2018-04-14T09:16:26.897Z,30.05
2018-04-14T09:17:26.924Z,30.24
2018-04-14T09:18:26.949Z,30.34
2018-04-14T09:19:26.726Z,29.86
2018-04-14T09:20:27.004Z,30.45
2018-04-14T09:21:27.030Z,29.68
2018-04-14T09:22:27.051Z,29.68
2018-04-14T09:23:27.078Z,29.77
2018-04-14T09:24:26.899Z,29.49
2018-04-14T09:25:27.128Z,28.92
2018-04-14T09:26:27.206Z,28.73
2018-04-14T09:27:27.178Z,28.16
2018-04-14T09:28:27.206Z,27.98
2018-04-14T09:29:26.979Z,27.4
2018-04-14T09:30:27.262Z,27.02
2018-04-14T09:31:27.286Z,26.75
2018-04-14T09:32:27.315Z,27.33
2018-04-14T09:33:27.341Z,27.23
2018-04-14T09:34:27.474Z,26.75
2018-04-14T09:35:27.396Z,25.6
2018-04-14T09:36:27.420Z,24.73
2018-04-14T09:37:27.194Z,24.63
2018-04-14T09:38:27.484Z,24.73
2018-04-14T09:39:27.583Z,24.55
2018-04-14T09:40:27.538Z,24.65
2018-04-14T09:41:27.570Z,25.04
2018-04-14T09:42:27.598Z,24.27
2018-04-14T09:43:27.621Z,23.6
2018-04-14T09:44:27.667Z,23.42
2018-04-14T09:45:27.426Z,23.33
2018-04-14T09:46:27.453Z,22.75
2018-04-14T09:47:27.482Z,22.37
2018-04-14T09:48:27.768Z,22.56
2018-04-14T09:49:27.829Z,22.66
2018-04-14T09:50:27.575Z,21.89
2018-04-14T09:51:27.598Z,21.61
2018-04-14T09:52:27.878Z,20.64
2018-04-14T09:53:27.912Z,20.54
2018-04-14T09:54:27.991Z,20.55
2018-04-14T09:55:27.971Z,20.25
2018-04-14T09:56:28.067Z,20.45
2018-04-14T09:57:28.031Z,20.07
2018-04-14T09:58:28.065Z,19.88
2018-04-14T09:59:27.838Z,20.46
2018-04-14T10:00:28.123Z,20.56
2018-04-14T10:01:28.154Z,20.56
2018-04-14T10:02:28.184Z,20.37
2018-04-14T10:03:28.213Z,20.27
2018-04-14T10:04:28.276Z,20.46
2018-04-14T10:05:28.278Z,20.57
2018-04-14T10:06:28.316Z,20.28
2018-04-14T10:07:28.335Z,20.29
2018-04-14T10:08:28.369Z,19.62
2018-04-14T10:09:28.396Z,19.12
2018-04-14T10:10:28.510Z,18.93
2018-04-14T10:11:28.509Z,18.74
2018-04-14T10:12:28.493Z,18.45
2018-04-14T10:13:28.520Z,18.75
2018-04-14T10:14:28.298Z,18.27
2018-04-14T10:15:28.586Z,17.68
2018-04-14T10:16:28.666Z,17.3
2018-04-14T10:17:28.649Z,17.49
2018-04-14T10:18:28.678Z,17.4
2018-04-14T10:19:28.706Z,17.5
2018-04-14T10:20:28.747Z,17.12
2018-04-14T10:21:28.770Z,17.21
2018-04-14T10:22:28.804Z,17.12
2018-04-14T10:23:28.579Z,17.21
2018-04-14T10:24:28.862Z,17.21
2018-04-14T10:25:28.897Z,16.93
2018-04-14T10:26:28.674Z,16.83
2018-04-14T10:27:28.967Z,17.03
2018-04-14T10:28:28.736Z,17.12
2018-04-14T10:29:29.026Z,16.93
2018-04-14T10:30:29.055Z,16.83
2018-04-14T10:31:29.235Z,16.93
2018-04-14T10:32:29.118Z,17.12
2018-04-14T10:33:28.900Z,16.93
2018-04-14T10:34:29.200Z,17.31
2018-04-14T10:35:29.215Z,16.44
2018-04-14T10:36:29.249Z,17.13
2018-04-14T10:37:29.298Z,16.53
2018-04-14T10:38:29.312Z,16.25
2018-04-14T10:39:29.343Z,16.15
2018-04-14T10:40:29.376Z,15.77
2018-04-14T10:41:29.409Z,15.87
2018-04-14T10:42:29.452Z,15.88
2018-04-14T10:43:29.473Z,15.69
2018-04-14T10:44:29.504Z,14.62
2018-04-14T10:45:29.532Z,13.93
2018-04-14T10:46:29.613Z,13.93
2018-04-14T10:47:29.595Z,13.65
2018-04-14T10:48:29.632Z,13.46
2018-04-14T10:49:29.656Z,13.26
2018-04-14T10:50:29.690Z,13.17
2018-04-14T10:51:29.470Z,12.68
2018-04-14T10:52:29.506Z,13.18
2018-04-14T10:53:29.795Z,13.87
2018-04-14T10:54:29.835Z,12.7
2018-04-14T10:55:29.870Z,12.11
2018-04-14T10:56:29.896Z,11.33
2018-04-14T10:57:29.930Z,12.21
2018-04-14T10:58:29.705Z,11.33
2018-04-14T10:59:29.997Z,11.43
2018-04-14T11:00:29.768Z,11.91
2018-04-14T11:01:30.107Z,11.82
2018-04-14T11:02:29.835Z,11.91
2018-04-14T11:03:30.128Z,11.43
2018-04-14T11:04:30.164Z,11.43
2018-04-14T11:05:29.948Z,11.23
2018-04-14T11:06:29.973Z,11.04
2018-04-14T11:07:30.008Z,11.72
2018-04-14T11:08:30.294Z,12.01
2018-04-14T11:09:30.069Z,11.91
2018-04-14T11:10:30.362Z,11.24
2018-04-14T11:11:30.137Z,11.63
2018-04-14T11:12:30.426Z,11.63
2018-04-14T11:13:30.466Z,11.15
2018-04-14T11:14:30.487Z,11.35
2018-04-14T11:15:30.522Z,10.76
2018-04-14T11:16:30.612Z,10.57
2018-04-14T11:17:30.592Z,10.47
2018-04-14T11:18:30.633Z,10.08
2018-04-14T11:19:30.667Z,9.4
2018-04-14T11:20:30.788Z,9.6
2018-04-14T11:21:30.834Z,9.11
2018-04-14T11:22:30.769Z,9.31
2018-04-14T11:23:30.802Z,9.8
2018-04-14T11:24:30.837Z,10
2018-04-14T11:25:30.873Z,10.49
2018-04-14T11:26:30.653Z,10.3
2018-04-14T11:27:30.943Z,10.1
2018-04-14T11:28:30.979Z,10.21
2018-04-14T11:29:31.017Z,10.1
2018-04-14T11:30:30.790Z,10.21
2018-04-14T11:31:31.233Z,10.3
2018-04-14T11:32:31.113Z,9.72
2018-04-14T11:33:30.893Z,9.42
2018-04-14T11:34:30.928Z,10.11
2018-04-14T11:35:31.215Z,9.72
2018-04-14T11:36:31.002Z,10.21
2018-04-14T11:37:31.033Z,10.21
2018-04-14T11:38:31.321Z,10
2018-04-14T11:39:31.357Z,9.91
2018-04-14T11:40:31.135Z,9.61
2018-04-14T11:41:31.429Z,10
2018-04-14T11:42:31.212Z,9.41
2018-04-14T11:43:31.295Z,9.32
2018-04-14T11:44:31.276Z,8.73
2018-04-14T11:45:31.568Z,9.23
2018-04-14T11:46:31.902Z,9.53
2018-04-14T11:47:31.636Z,9.14
2018-04-14T11:48:31.669Z,8.94
2018-04-14T11:49:31.456Z,8.26
2018-04-14T11:50:31.743Z,8.36
2018-04-14T11:51:31.777Z,7.67
2018-04-14T11:52:31.812Z,7.87
2018-04-14T11:53:31.867Z,7.87
2018-04-14T11:54:31.881Z,7.39
2018-04-14T11:55:31.670Z,6.89
2018-04-14T11:56:31.957Z,7.58
2018-04-14T11:57:31.738Z,7.09
2018-04-14T11:58:32.036Z,6.9
2018-04-14T11:59:32.065Z,6.6
2018-04-14T12:00:32.095Z,6.9
2018-04-14T12:01:32.189Z,6.9
2018-04-14T12:02:32.172Z,7.1
2018-04-14T12:03:32.205Z,6.51
2018-04-14T12:04:32.247Z,6.51
2018-04-14T12:05:32.280Z,6.41
2018-04-14T12:06:32.308Z,6.32
2018-04-14T12:07:32.358Z,6.41
2018-04-14T12:08:32.398Z,6.42
2018-04-14T12:09:32.426Z,5.93
2018-04-14T12:10:32.453Z,6.62
2018-04-14T12:11:32.237Z,5.73
2018-04-14T12:12:32.525Z,5.73
2018-04-14T12:13:32.566Z,6.02
2018-04-14T12:14:32.603Z,6.12
2018-04-14T12:15:32.646Z,5.83
2018-04-14T12:16:32.724Z,5.83
2018-04-14T12:17:32.709Z,5.73
2018-04-14T12:18:32.745Z,5.83
2018-04-14T12:19:32.532Z,5.54
2018-04-14T12:20:32.818Z,5.64
2018-04-14T12:21:32.605Z,5.34
2018-04-14T12:22:32.889Z,4.94
2018-04-14T12:23:32.929Z,5.15
2018-04-14T12:24:32.964Z,4.94
2018-04-14T12:25:33.000Z,5.14
2018-04-14T12:26:33.035Z,5.14
2018-04-14T12:27:33.077Z,5.04
2018-04-14T12:28:33.110Z,5.24
2018-04-14T12:29:33.149Z,5.63
2018-04-14T12:30:32.928Z,5.43
2018-04-14T12:31:33.263Z,5.62
2018-04-14T12:32:33.002Z,5.82
2018-04-14T12:33:33.312Z,6.01
2018-04-14T12:34:33.340Z,5.92
2018-04-14T12:35:33.367Z,5.43
2018-04-14T12:36:33.197Z,5.14
2018-04-14T12:37:33.188Z,5.33
2018-04-14T12:38:33.474Z,5.23
2018-04-14T12:39:33.513Z,5.23
2018-04-14T12:40:33.555Z,5.43
2018-04-14T12:41:33.334Z,5.23
2018-04-14T12:42:33.621Z,5.04
2018-04-14T12:43:33.661Z,5.23
2018-04-14T12:44:33.698Z,4.84
2018-04-14T12:45:33.734Z,4.94
2018-04-14T12:46:33.771Z,4.94
2018-04-14T12:47:33.808Z,4.94
2018-04-14T12:48:33.844Z,4.85
2018-04-14T12:49:33.879Z,5.24
2018-04-14T12:50:33.912Z,5.43
2018-04-14T12:51:33.998Z,5.53
2018-04-14T12:52:33.731Z,6.21
2018-04-14T12:53:33.777Z,5.33
2018-04-14T12:54:34.061Z,5.33
2018-04-14T12:55:34.095Z,5.33
2018-04-14T12:56:34.136Z,5.54
2018-04-14T12:57:33.917Z,5.63